createdAt,value
2022-11-16T00:00:19.028Z,99626.66
2022-11-16T00:01:09.268Z,99631.84
2022-11-16T00:01:56.701Z,99624.03
2022-11-16T00:02:43.164Z,99625.78
2022-11-16T00:03:31.232Z,99631.00
2022-11-16T00:04:17.695Z,99630.13
2022-11-16T00:05:04.415Z,99626.66
2022-11-16T00:05:56.291Z,99633.59
2022-11-16T00:06:42.932Z,99630.13
2022-11-16T00:07:29.377Z,99621.44
2022-11-16T00:08:15.962Z,99624.06
2022-11-16T00:09:21.316Z,99619.69
2022-11-16T00:10:08.282Z,99624.06
2022-11-16T00:10:54.851Z,99621.44
2022-11-16T00:11:42.000Z,99619.69
2022-11-16T00:12:28.485Z,99620.56
2022-11-16T00:13:14.968Z,99620.59
2022-11-16T00:14:01.427Z,99612.78
2022-11-16T00:14:48.045Z,99611.88
2022-11-16T00:15:34.478Z,99609.28
2022-11-16T00:16:20.905Z,99611.03
2022-11-16T00:17:07.594Z,99609.28
2022-11-16T00:17:54.173Z,99612.78
2022-11-16T00:18:42.908Z,99604.94
2022-11-16T00:19:30.403Z,99604.06
2022-11-16T00:20:17.030Z,99610.16
2022-11-16T00:21:05.468Z,99609.31
2022-11-16T00:21:52.928Z,99609.28
2022-11-16T00:22:39.379Z,99609.31
2022-11-16T00:23:25.850Z,99607.56
2022-11-16T00:24:14.931Z,99609.28
2022-11-16T00:25:01.493Z,99608.44
2022-11-16T00:25:48.219Z,99608.44
2022-11-16T00:26:34.612Z,99612.75
2022-11-16T00:27:21.157Z,99610.16
2022-11-16T00:28:08.018Z,99604.09
2022-11-16T00:28:55.406Z,99611.00
2022-11-16T00:29:41.906Z,99611.00
2022-11-16T00:30:28.584Z,99603.19
2022-11-16T00:31:15.453Z,99609.28
2022-11-16T00:32:02.226Z,99605.81
2022-11-16T00:32:48.983Z,99606.66
2022-11-16T00:33:36.071Z,99606.66
2022-11-16T00:34:23.858Z,99611.00
2022-11-16T00:35:10.605Z,99609.25
2022-11-16T00:35:57.720Z,99607.50
2022-11-16T00:36:44.641Z,99607.53
2022-11-16T00:37:31.527Z,99602.31
2022-11-16T00:38:18.374Z,99608.41
2022-11-16T00:39:05.037Z,99608.38
2022-11-16T00:39:52.905Z,99602.28
2022-11-16T00:40:39.551Z,99605.81
2022-11-16T00:41:26.735Z,99603.22
2022-11-16T00:42:13.992Z,99602.34
2022-11-16T00:43:00.747Z,99608.41
2022-11-16T00:43:47.630Z,99604.09
2022-11-16T00:44:34.212Z,99606.69
2022-11-16T00:45:20.737Z,99598.88
2022-11-16T00:46:07.353Z,99606.69
2022-11-16T00:46:53.853Z,99600.63
2022-11-16T00:47:40.877Z,99604.97
2022-11-16T00:48:27.372Z,99601.50
2022-11-16T00:49:14.955Z,99603.22
2022-11-16T00:50:01.974Z,99601.47
2022-11-16T00:50:48.548Z,99604.91
2022-11-16T00:51:36.534Z,99607.53
2022-11-16T00:52:23.124Z,99604.94
2022-11-16T00:53:13.133Z,99599.75
2022-11-16T00:53:59.626Z,99604.97
2022-11-16T00:54:46.631Z,99604.09
2022-11-16T00:55:34.701Z,99601.47
2022-11-16T00:56:23.530Z,99602.34
2022-11-16T00:57:09.991Z,99600.63
2022-11-16T00:57:56.539Z,99599.75
2022-11-16T00:58:44.722Z,99598.00
2022-11-16T00:59:31.629Z,99600.63
2022-11-16T01:00:20.981Z,99593.69
2022-11-16T01:01:09.594Z,99591.06
2022-11-16T01:01:56.132Z,99594.53
2022-11-16T01:02:42.594Z,99598.00
2022-11-16T01:03:29.412Z,99593.66
2022-11-16T01:04:15.870Z,99595.41
2022-11-16T01:05:03.128Z,99596.28
2022-11-16T01:05:49.874Z,99596.28
2022-11-16T01:06:36.511Z,99592.81
2022-11-16T01:07:23.055Z,99596.28
2022-11-16T01:08:09.594Z,99590.22
2022-11-16T01:08:57.224Z,99590.19
2022-11-16T01:09:43.819Z,99598.88
2022-11-16T01:10:31.235Z,99591.94
2022-11-16T01:11:38.061Z,99594.56
2022-11-16T01:12:24.765Z,99594.53
2022-11-16T01:13:12.107Z,99594.53
2022-11-16T01:13:58.853Z,99593.66
2022-11-16T01:14:47.253Z,99594.50
2022-11-16T01:15:33.758Z,99596.28
2022-11-16T01:16:22.649Z,99592.78
2022-11-16T01:17:09.807Z,99586.69
2022-11-16T01:17:57.870Z,99594.53
2022-11-16T01:18:48.913Z,99597.16
2022-11-16T01:19:37.056Z,99594.53
2022-11-16T01:20:26.925Z,99598.00
2022-11-16T01:21:13.715Z,99598.88
2022-11-16T01:22:01.257Z,99597.16
2022-11-16T01:22:48.414Z,99589.34
2022-11-16T01:23:34.980Z,99601.50
2022-11-16T01:24:21.470Z,99600.63
2022-11-16T01:25:10.837Z,99598.03
2022-11-16T01:26:01.788Z,99599.75
2022-11-16T01:26:50.367Z,99603.22
2022-11-16T01:27:38.146Z,99593.66
2022-11-16T01:28:29.783Z,99598.88
2022-11-16T01:29:16.838Z,99593.66
2022-11-16T01:30:12.552Z,99594.53
2022-11-16T01:31:04.257Z,99597.16
2022-11-16T01:31:54.974Z,99595.41
2022-11-16T01:32:41.456Z,99593.66
2022-11-16T01:33:29.007Z,99590.22
2022-11-16T01:34:16.332Z,99597.16
2022-11-16T01:35:04.312Z,99592.81
2022-11-16T01:35:53.461Z,99586.75
2022-11-16T01:36:41.241Z,99587.59
2022-11-16T01:37:30.057Z,99591.94
2022-11-16T01:38:17.493Z,99585.00
2022-11-16T01:39:05.406Z,99592.78
2022-11-16T01:40:01.878Z,99585.00
2022-11-16T01:40:49.493Z,99587.59
2022-11-16T01:41:36.346Z,99591.94
2022-11-16T01:42:29.634Z,99589.34
2022-11-16T01:43:23.756Z,99596.28
2022-11-16T01:44:14.861Z,99592.81
2022-11-16T01:45:23.362Z,99588.47
2022-11-16T01:46:12.296Z,99591.06
2022-11-16T01:47:09.582Z,99594.53
2022-11-16T01:47:58.279Z,99602.38
2022-11-16T01:48:58.557Z,99593.69
2022-11-16T01:49:57.792Z,99598.00
2022-11-16T01:50:50.188Z,99591.94
2022-11-16T01:51:39.796Z,99598.88
2022-11-16T01:52:31.652Z,99594.53
2022-11-16T01:53:20.046Z,99590.22
2022-11-16T01:54:13.796Z,99598.03
2022-11-16T01:55:12.631Z,99588.47
2022-11-16T01:56:19.712Z,99592.81
2022-11-16T01:57:30.364Z,99593.66
2022-11-16T01:58:26.848Z,99596.28
2022-11-16T01:59:20.171Z,99598.03
2022-11-16T02:00:11.198Z,99592.81
2022-11-16T02:01:10.856Z,99595.44
2022-11-16T02:02:04.858Z,99594.53
2022-11-16T02:02:54.210Z,99602.38
2022-11-16T02:04:02.456Z,99593.69
2022-11-16T02:04:53.903Z,99595.41
2022-11-16T02:06:30.463Z,99600.63
2022-11-16T02:07:59.789Z,99599.75
2022-11-16T02:09:40.481Z,99600.63
2022-11-16T02:10:53.109Z,99604.09
2022-11-16T02:12:00.247Z,99599.75
2022-11-16T02:13:22.371Z,99609.28
2022-11-16T02:14:24.159Z,99604.94
2022-11-16T02:15:29.454Z,99607.53
2022-11-16T02:16:48.257Z,99599.66
2022-11-16T02:17:57.472Z,99602.28
2022-11-16T02:19:01.129Z,99587.53
2022-11-16T02:20:14.505Z,99584.91
2022-11-16T02:21:10.287Z,99583.19
2022-11-16T02:22:13.990Z,99579.72
2022-11-16T02:23:32.655Z,99575.41
2022-11-16T02:24:42.626Z,99574.56
2022-11-16T02:26:04.614Z,99575.47
2022-11-16T02:27:35.718Z,99578.91
2022-11-16T02:28:24.938Z,99584.94
2022-11-16T02:29:20.474Z,99582.34
2022-11-16T02:30:07.900Z,99588.44
2022-11-16T02:31:05.338Z,99582.34
2022-11-16T02:32:04.607Z,99580.63
2022-11-16T02:33:04.221Z,99579.75
2022-11-16T02:33:56.180Z,99584.06
2022-11-16T02:35:01.620Z,99580.59
2022-11-16T02:35:55.022Z,99580.59
2022-11-16T02:36:46.015Z,99581.44
2022-11-16T02:37:40.176Z,99577.13
2022-11-16T02:38:33.547Z,99586.66
2022-11-16T02:39:26.192Z,99574.50
2022-11-16T02:40:18.985Z,99566.72
2022-11-16T02:41:16.190Z,99558.03
2022-11-16T02:42:08.393Z,99559.78
2022-11-16T02:43:04.796Z,99564.13
2022-11-16T02:44:03.330Z,99552.00
2022-11-16T02:44:54.601Z,99554.59
2022-11-16T02:45:48.160Z,99552.00
2022-11-16T02:46:42.775Z,99547.63
2022-11-16T02:47:35.430Z,99545.91
2022-11-16T02:48:33.475Z,99552.84
2022-11-16T02:49:23.955Z,99539.91
2022-11-16T02:50:17.890Z,99544.22
2022-11-16T02:51:06.839Z,99544.25
2022-11-16T02:51:55.739Z,99542.50
2022-11-16T02:52:42.161Z,99540.75
2022-11-16T02:53:37.086Z,99539.88
2022-11-16T02:54:24.839Z,99541.59
2022-11-16T02:55:14.954Z,99528.56
2022-11-16T02:56:04.065Z,99525.97
2022-11-16T02:56:57.207Z,99534.63
2022-11-16T02:58:00.656Z,99532.03
2022-11-16T02:58:51.286Z,99532.88
2022-11-16T02:59:45.739Z,99525.13
2022-11-16T03:00:48.001Z,99522.53
2022-11-16T03:01:47.791Z,99525.09
2022-11-16T03:02:45.469Z,99526.84
2022-11-16T03:03:52.495Z,99525.97
2022-11-16T03:04:48.316Z,99528.56
2022-11-16T03:05:48.413Z,99525.09
2022-11-16T03:06:41.462Z,99520.75
2022-11-16T03:07:41.025Z,99525.94
2022-11-16T03:08:35.494Z,99519.00
2022-11-16T03:09:32.716Z,99519.00
2022-11-16T03:10:40.803Z,99516.44
2022-11-16T03:11:49.243Z,99524.22
2022-11-16T03:12:40.784Z,99517.28
2022-11-16T03:13:33.537Z,99517.28
2022-11-16T03:14:26.816Z,99525.94
2022-11-16T03:15:14.722Z,99529.41
2022-11-16T03:16:27.029Z,99528.56
2022-11-16T03:17:37.197Z,99538.94
2022-11-16T03:18:28.961Z,99536.38
2022-11-16T03:19:28.138Z,99539.84
2022-11-16T03:20:20.755Z,99534.63
2022-11-16T03:21:18.118Z,99543.31
2022-11-16T03:22:17.522Z,99538.09
2022-11-16T03:23:10.039Z,99538.97
2022-11-16T03:23:57.690Z,99537.25
2022-11-16T03:24:44.975Z,99538.09
2022-11-16T03:25:45.194Z,99545.91
2022-11-16T03:26:46.493Z,99546.75
2022-11-16T03:28:02.673Z,99545.91
2022-11-16T03:29:27.122Z,99549.34
2022-11-16T03:30:26.656Z,99552.84
2022-11-16T03:31:26.752Z,99560.63
2022-11-16T03:32:20.548Z,99563.25
2022-11-16T03:33:58.851Z,99563.25
2022-11-16T03:35:08.413Z,99562.38
2022-11-16T03:36:03.773Z,99559.78
2022-11-16T03:36:55.890Z,99556.31
2022-11-16T03:37:47.679Z,99553.72
2022-11-16T03:38:38.305Z,99547.63
2022-11-16T03:39:37.678Z,99545.03
2022-11-16T03:40:30.021Z,99551.09
2022-11-16T03:41:20.420Z,99553.72
2022-11-16T03:42:14.375Z,99549.38
2022-11-16T03:43:07.212Z,99557.19
2022-11-16T03:43:56.739Z,99557.19
2022-11-16T03:44:47.890Z,99559.78
2022-11-16T03:45:36.690Z,99563.25
2022-11-16T03:46:24.754Z,99554.56
2022-11-16T03:47:12.827Z,99554.56
2022-11-16T03:48:00.792Z,99556.31
2022-11-16T03:48:47.510Z,99555.44
2022-11-16T03:49:47.571Z,99560.63
2022-11-16T03:50:36.090Z,99551.09
2022-11-16T03:51:22.737Z,99557.16
2022-11-16T03:52:10.263Z,99557.16
2022-11-16T03:52:56.885Z,99557.16
2022-11-16T03:53:43.531Z,99558.03
2022-11-16T03:54:31.917Z,99568.44
2022-11-16T03:55:20.599Z,99563.22
2022-11-16T03:56:07.661Z,99559.75
2022-11-16T03:56:54.392Z,99563.22
2022-11-16T03:57:40.866Z,99564.97
2022-11-16T03:58:27.776Z,99563.22
2022-11-16T03:59:16.001Z,99569.28
2022-11-16T04:00:06.834Z,99568.44
2022-11-16T04:01:00.329Z,99564.94
2022-11-16T04:01:48.571Z,99564.97
2022-11-16T04:02:35.283Z,99564.09
2022-11-16T04:03:22.507Z,99564.09
2022-11-16T04:04:29.522Z,99568.44
2022-11-16T04:05:35.540Z,99572.75
2022-11-16T04:06:40.482Z,99577.97
2022-11-16T04:07:45.670Z,99579.69
2022-11-16T04:08:52.191Z,99577.97
2022-11-16T04:09:57.321Z,99577.13
2022-11-16T04:11:03.217Z,99576.22
2022-11-16T04:12:10.870Z,99575.38
2022-11-16T04:13:17.898Z,99581.44
2022-11-16T04:14:24.417Z,99581.44
2022-11-16T04:15:29.583Z,99571.88
2022-11-16T04:16:36.054Z,99578.84
2022-11-16T04:17:45.058Z,99584.03
2022-11-16T04:18:51.680Z,99582.31
2022-11-16T04:19:58.338Z,99580.59
2022-11-16T04:21:06.360Z,99586.63
2022-11-16T04:22:19.332Z,99584.91
2022-11-16T04:23:31.754Z,99579.69
2022-11-16T04:24:26.147Z,99590.97
2022-11-16T04:25:20.011Z,99589.25
2022-11-16T04:26:10.220Z,99595.28
2022-11-16T04:27:24.235Z,99597.03
2022-11-16T04:28:13.549Z,99597.03
2022-11-16T04:29:03.765Z,99592.69
2022-11-16T04:29:51.400Z,99597.91
2022-11-16T04:30:58.576Z,99598.75
2022-11-16T04:32:04.181Z,99603.09
2022-11-16T04:33:09.245Z,99606.59
2022-11-16T04:34:14.450Z,99616.97
2022-11-16T04:35:24.438Z,99623.03
2022-11-16T04:36:29.997Z,99627.41
2022-11-16T04:37:37.829Z,99631.72
2022-11-16T04:38:25.696Z,99642.13
2022-11-16T04:39:13.275Z,99645.63
2022-11-16T04:40:00.159Z,99641.28
2022-11-16T04:40:48.112Z,99642.16
2022-11-16T04:41:53.782Z,99649.97
2022-11-16T04:42:40.824Z,99638.72
2022-11-16T04:43:28.762Z,99633.47
2022-11-16T04:45:21.949Z,99629.13
2022-11-16T04:46:30.576Z,99623.91
2022-11-16T04:47:18.043Z,99623.06
2022-11-16T04:48:06.299Z,99615.25
2022-11-16T04:48:54.531Z,99614.38
2022-11-16T04:49:41.151Z,99610.91
2022-11-16T04:50:27.778Z,99615.25
2022-11-16T04:51:14.492Z,99612.63
2022-11-16T04:52:01.234Z,99622.19
2022-11-16T04:52:50.502Z,99623.91
2022-11-16T04:53:39.667Z,99615.28
2022-11-16T04:54:34.302Z,99624.78
2022-11-16T04:55:21.505Z,99625.66
2022-11-16T04:56:09.635Z,99626.53
2022-11-16T04:56:57.885Z,99617.84
2022-11-16T04:57:44.611Z,99623.03
2022-11-16T04:58:33.015Z,99618.66
2022-11-16T04:59:19.793Z,99614.38
2022-11-16T05:00:08.462Z,99613.50
2022-11-16T05:00:57.445Z,99618.72
2022-11-16T05:02:04.073Z,99622.19
2022-11-16T05:02:51.049Z,99620.44
2022-11-16T05:03:37.784Z,99620.44
2022-11-16T05:04:24.500Z,99626.50
2022-11-16T05:05:11.819Z,99623.03
2022-11-16T05:06:01.017Z,99617.81
2022-11-16T05:06:48.259Z,99623.03
2022-11-16T05:07:35.826Z,99623.88
2022-11-16T05:08:29.423Z,99628.22
2022-11-16T05:09:16.621Z,99623.00
2022-11-16T05:10:05.865Z,99629.06
2022-11-16T05:10:53.006Z,99622.16
2022-11-16T05:11:41.205Z,99627.34
2022-11-16T05:12:28.853Z,99623.03
2022-11-16T05:13:18.924Z,99628.25
2022-11-16T05:14:06.423Z,99621.28
2022-11-16T05:14:55.063Z,99627.34
2022-11-16T05:15:46.305Z,99624.75
2022-11-16T05:16:33.769Z,99624.75
2022-11-16T05:17:20.838Z,99623.88
2022-11-16T05:18:07.531Z,99629.97
2022-11-16T05:19:12.762Z,99627.34
2022-11-16T05:20:18.952Z,99629.09
2022-11-16T05:21:10.337Z,99633.41
2022-11-16T05:21:58.247Z,99630.78
2022-11-16T05:22:44.962Z,99632.50
2022-11-16T05:23:50.054Z,99638.56
2022-11-16T05:24:39.895Z,99634.25
2022-11-16T05:25:26.683Z,99634.25
2022-11-16T05:26:13.329Z,99633.34
2022-11-16T05:27:01.330Z,99629.03
2022-11-16T05:27:48.124Z,99629.03
2022-11-16T05:28:35.873Z,99633.38
2022-11-16T05:29:22.935Z,99625.56
2022-11-16T05:30:11.188Z,99623.81
2022-11-16T05:30:58.164Z,99625.56
2022-11-16T05:31:47.043Z,99627.28
2022-11-16T05:32:35.088Z,99617.75
2022-11-16T05:33:21.778Z,99630.78
2022-11-16T05:34:09.781Z,99625.56
2022-11-16T05:34:56.330Z,99629.03
2022-11-16T05:35:44.044Z,99630.72
2022-11-16T05:36:31.164Z,99629.00
2022-11-16T05:37:20.965Z,99633.31
2022-11-16T05:38:07.396Z,99633.28
2022-11-16T05:38:58.705Z,99635.03
2022-11-16T05:39:48.223Z,99639.38
2022-11-16T05:40:35.448Z,99636.75
2022-11-16T05:41:22.090Z,99638.47
2022-11-16T05:42:09.682Z,99639.34
2022-11-16T05:42:58.111Z,99636.72
2022-11-16T05:43:46.070Z,99642.78
2022-11-16T05:44:39.809Z,99647.97
2022-11-16T05:45:27.180Z,99646.22
2022-11-16T05:46:13.864Z,99639.28
2022-11-16T05:47:01.007Z,99647.94
2022-11-16T05:47:48.402Z,99648.75
2022-11-16T05:48:35.938Z,99653.94
2022-11-16T05:49:24.343Z,99653.94
2022-11-16T05:50:11.097Z,99639.22
2022-11-16T05:51:00.450Z,99646.13
2022-11-16T05:51:52.740Z,99647.84
2022-11-16T05:52:41.163Z,99643.50
2022-11-16T05:53:30.697Z,99644.34
2022-11-16T05:54:21.155Z,99646.91
2022-11-16T05:55:08.269Z,99654.69
2022-11-16T05:56:01.037Z,99647.78
2022-11-16T05:56:49.542Z,99656.41
2022-11-16T05:57:37.490Z,99650.28
2022-11-16T05:58:24.312Z,99650.28
2022-11-16T05:59:19.843Z,99655.44
2022-11-16T06:00:09.676Z,99652.81
2022-11-16T06:01:01.846Z,99651.06
2022-11-16T06:01:48.604Z,99645.94
2022-11-16T06:02:35.709Z,99654.59
2022-11-16T06:03:22.491Z,99645.03
2022-11-16T06:04:09.739Z,99643.28
2022-11-16T06:04:56.380Z,99648.44
2022-11-16T06:05:43.211Z,99650.19
2022-11-16T06:06:32.869Z,99649.31
2022-11-16T06:07:20.221Z,99649.28
2022-11-16T06:08:06.715Z,99646.72
2022-11-16T06:08:53.378Z,99649.31
2022-11-16T06:09:44.630Z,99652.72
2022-11-16T06:10:39.059Z,99657.88
2022-11-16T06:11:29.116Z,99659.56
2022-11-16T06:12:19.621Z,99650.84
2022-11-16T06:13:07.883Z,99660.31
2022-11-16T06:13:54.736Z,99655.94
2022-11-16T06:14:41.390Z,99655.06
2022-11-16T06:15:27.904Z,99650.69
2022-11-16T06:16:14.570Z,99660.19
2022-11-16T06:17:01.233Z,99655.81
2022-11-16T06:17:48.089Z,99660.09
2022-11-16T06:18:41.727Z,99660.91
2022-11-16T06:19:32.310Z,99663.44
2022-11-16T06:20:19.291Z,99667.72
2022-11-16T06:21:07.617Z,99666.81
2022-11-16T06:21:54.262Z,99668.47
2022-11-16T06:22:41.185Z,99671.03
2022-11-16T06:23:27.837Z,99674.44
2022-11-16T06:24:14.533Z,99677.00
2022-11-16T06:25:02.445Z,99677.81
2022-11-16T06:25:55.217Z,99679.47
2022-11-16T06:26:43.591Z,99676.84
2022-11-16T06:27:30.240Z,99680.25
2022-11-16T06:28:16.696Z,99681.94
2022-11-16T06:29:03.933Z,99676.72
2022-11-16T06:29:50.784Z,99681.06
2022-11-16T06:30:40.083Z,99682.84
2022-11-16T06:31:27.720Z,99682.81
2022-11-16T06:32:14.915Z,99681.06
2022-11-16T06:33:01.629Z,99681.84
2022-11-16T06:33:48.043Z,99687.88
2022-11-16T06:34:39.580Z,99686.97
2022-11-16T06:35:26.142Z,99690.41
2022-11-16T06:36:13.573Z,99690.41
2022-11-16T06:37:00.350Z,99694.69
2022-11-16T06:37:47.282Z,99697.25
2022-11-16T06:38:34.119Z,99704.94
2022-11-16T06:39:21.945Z,99701.47
2022-11-16T06:40:09.823Z,99704.06
2022-11-16T06:41:01.365Z,99703.16
2022-11-16T06:41:49.593Z,99702.28
2022-11-16T06:42:36.284Z,99691.94
2022-11-16T06:43:24.452Z,99700.56
2022-11-16T06:44:11.080Z,99692.75
2022-11-16T06:45:02.468Z,99691.00
2022-11-16T06:45:57.878Z,99694.44
2022-11-16T06:46:44.511Z,99700.50
2022-11-16T06:47:30.982Z,99697.00
2022-11-16T06:48:19.541Z,99697.81
2022-11-16T06:49:06.885Z,99696.88
2022-11-16T06:49:54.222Z,99693.34
2022-11-16T06:50:42.878Z,99694.19
2022-11-16T06:51:29.642Z,99700.22
2022-11-16T06:52:16.124Z,99693.25
2022-11-16T06:53:02.825Z,99694.09
2022-11-16T06:53:49.848Z,99697.53
2022-11-16T06:54:36.596Z,99697.50
2022-11-16T06:55:23.619Z,99700.94
2022-11-16T06:56:14.293Z,99702.69
2022-11-16T06:57:06.024Z,99697.50
2022-11-16T06:57:52.637Z,99699.19
2022-11-16T06:58:42.613Z,99706.13
2022-11-16T06:59:30.169Z,99706.06
2022-11-16T07:00:17.217Z,99707.81
2022-11-16T07:01:07.731Z,99705.13
2022-11-16T07:01:55.639Z,99706.84
2022-11-16T07:02:42.258Z,99705.09
2022-11-16T07:03:32.714Z,99710.28
2022-11-16T07:04:20.453Z,99710.31
2022-11-16T07:05:13.136Z,99710.28
2022-11-16T07:06:06.743Z,99721.53
2022-11-16T07:06:53.472Z,99712.84
2022-11-16T07:07:40.844Z,99714.59
2022-11-16T07:08:28.173Z,99719.78
2022-11-16T07:09:14.990Z,99722.38
2022-11-16T07:10:03.163Z,99719.78
2022-11-16T07:10:51.067Z,99722.41
2022-11-16T07:11:37.512Z,99723.28
2022-11-16T07:12:24.147Z,99720.63
2022-11-16T07:13:10.629Z,99725.75
2022-11-16T07:13:59.112Z,99721.38
2022-11-16T07:14:45.597Z,99721.38
2022-11-16T07:15:33.774Z,99727.63
2022-11-16T07:16:21.193Z,99727.84
2022-11-16T07:17:18.066Z,99722.66
2022-11-16T07:18:08.390Z,99729.75
2022-11-16T07:18:59.271Z,99725.50
2022-11-16T07:19:48.261Z,99731.63
2022-11-16T07:20:37.544Z,99729.88
2022-11-16T07:21:24.226Z,99729.03
2022-11-16T07:22:11.922Z,99735.28
2022-11-16T07:23:02.403Z,99737.84
2022-11-16T07:23:48.968Z,99744.69
2022-11-16T07:24:39.166Z,99738.63
2022-11-16T07:25:25.726Z,99737.75
2022-11-16T07:26:13.431Z,99743.78
2022-11-16T07:27:07.748Z,99737.69
2022-11-16T07:27:58.676Z,99743.69
2022-11-16T07:28:48.407Z,99741.94
2022-11-16T07:29:38.464Z,99750.56
2022-11-16T07:30:45.311Z,99754.81
2022-11-16T07:31:39.551Z,99755.72
2022-11-16T07:32:46.241Z,99759.19
2022-11-16T07:33:45.571Z,99756.56
2022-11-16T07:34:59.449Z,99763.44
2022-11-16T07:35:47.086Z,99759.16
2022-11-16T07:36:33.508Z,99763.44
2022-11-16T07:37:19.964Z,99764.28
2022-11-16T07:38:07.426Z,99772.06
2022-11-16T07:38:54.239Z,99766.03
2022-11-16T07:39:40.920Z,99765.97
2022-11-16T07:40:29.041Z,99765.94
2022-11-16T07:41:18.661Z,99759.91
2022-11-16T07:42:17.922Z,99770.22
2022-11-16T07:43:37.374Z,99766.75
2022-11-16T07:44:30.277Z,99771.88
2022-11-16T07:45:26.712Z,99769.19
2022-11-16T07:46:45.439Z,99767.50
2022-11-16T07:47:28.723Z,99774.38
2022-11-16T07:48:15.685Z,99774.38
2022-11-16T07:49:40.284Z,99780.50
2022-11-16T07:50:37.033Z,99778.78
2022-11-16T07:51:24.447Z,99781.34
2022-11-16T07:52:27.683Z,99786.50
2022-11-16T07:53:19.547Z,99784.72
2022-11-16T07:54:06.542Z,99783.00
2022-11-16T07:54:53.341Z,99792.50
2022-11-16T07:55:43.577Z,99787.31
2022-11-16T07:56:30.383Z,99787.28
2022-11-16T07:57:16.870Z,99782.09
2022-11-16T07:58:03.817Z,99778.66
2022-11-16T07:58:50.997Z,99785.53
2022-11-16T07:59:37.523Z,99782.03
2022-11-16T08:00:26.897Z,99781.28
2022-11-16T08:01:22.427Z,99783.88
2022-11-16T08:02:10.931Z,99785.56
2022-11-16T08:02:59.827Z,99784.72
2022-11-16T08:03:47.129Z,99781.28
2022-11-16T08:04:33.935Z,99787.38
2022-11-16T08:05:20.453Z,99788.25
2022-11-16T08:06:20.969Z,99787.47
2022-11-16T08:07:07.491Z,99784.88
2022-11-16T08:07:59.209Z,99789.16
2022-11-16T08:08:46.274Z,99783.13
2022-11-16T08:09:34.669Z,99793.56
2022-11-16T08:10:23.052Z,99790.13
2022-11-16T08:11:12.139Z,99795.34
2022-11-16T08:11:58.735Z,99795.38
2022-11-16T08:12:45.327Z,99794.44
2022-11-16T08:13:37.295Z,99790.97
2022-11-16T08:14:24.030Z,99802.22
2022-11-16T08:15:14.138Z,99796.22
2022-11-16T08:16:02.639Z,99794.53
2022-11-16T08:16:49.337Z,99799.72
2022-11-16T08:17:44.118Z,99802.31
2022-11-16T08:18:32.997Z,99807.47
2022-11-16T08:19:19.903Z,99807.47
2022-11-16T08:20:16.264Z,99818.66
2022-11-16T08:21:05.302Z,99814.41
2022-11-16T08:21:52.041Z,99807.44
2022-11-16T08:22:39.590Z,99810.97
2022-11-16T08:23:28.402Z,99811.97
2022-11-16T08:24:15.068Z,99817.16
2022-11-16T08:25:04.443Z,99811.97
2022-11-16T08:25:51.188Z,99820.63
2022-11-16T08:26:37.981Z,99814.56
2022-11-16T08:27:30.985Z,99817.16
2022-11-16T08:28:17.636Z,99818.00
2022-11-16T08:29:04.184Z,99820.59
2022-11-16T08:29:56.014Z,99825.81
2022-11-16T08:30:42.505Z,99824.97
2022-11-16T08:31:29.865Z,99824.09
2022-11-16T08:32:30.078Z,99823.19
2022-11-16T08:33:17.834Z,99824.03
2022-11-16T08:34:04.384Z,99818.81
2022-11-16T08:34:52.500Z,99823.19
2022-11-16T08:35:39.019Z,99827.59
2022-11-16T08:36:25.552Z,99828.56
2022-11-16T08:37:13.037Z,99829.44
2022-11-16T08:38:03.371Z,99828.59
2022-11-16T08:38:52.280Z,99830.34
2022-11-16T08:39:40.441Z,99833.88
2022-11-16T08:40:28.717Z,99840.81
2022-11-16T08:41:18.421Z,99838.31
2022-11-16T08:42:05.286Z,99841.78
2022-11-16T08:42:56.940Z,99843.63
2022-11-16T08:43:44.700Z,99842.72
2022-11-16T08:44:31.246Z,99840.13
2022-11-16T08:45:21.722Z,99846.25
2022-11-16T08:46:10.847Z,99835.06
2022-11-16T08:47:00.169Z,99854.09
2022-11-16T08:48:04.111Z,99849.03
2022-11-16T08:48:57.166Z,99847.44
2022-11-16T08:49:49.395Z,99845.75
2022-11-16T08:51:02.329Z,99842.31
2022-11-16T08:51:43.573Z,99845.06
2022-11-16T08:52:30.041Z,99842.47
2022-11-16T08:53:18.007Z,99847.66
2022-11-16T08:54:06.280Z,99852.03
2022-11-16T08:54:55.495Z,99852.97
2022-11-16T08:55:42.841Z,99851.25
2022-11-16T08:56:30.047Z,99851.38
2022-11-16T08:57:16.990Z,99860.09
2022-11-16T08:58:06.780Z,99857.50
2022-11-16T08:58:58.621Z,99850.66
2022-11-16T08:59:46.035Z,99848.94
2022-11-16T09:00:33.796Z,99852.38
2022-11-16T09:01:24.272Z,99845.41
2022-11-16T09:02:10.846Z,99848.88
2022-11-16T09:02:57.495Z,99857.53
2022-11-16T09:03:45.701Z,99850.59
2022-11-16T09:04:36.869Z,99847.19
2022-11-16T09:05:23.895Z,99855.78
2022-11-16T09:06:11.733Z,99858.34
2022-11-16T09:06:58.387Z,99864.38
2022-11-16T09:07:45.927Z,99861.75
2022-11-16T09:08:33.627Z,99860.81
2022-11-16T09:09:20.542Z,99864.31
2022-11-16T09:10:07.654Z,99858.25
2022-11-16T09:10:54.144Z,99867.84
2022-11-16T09:11:40.778Z,99866.13
2022-11-16T09:12:27.302Z,99865.28
2022-11-16T09:13:13.742Z,99861.06
2022-11-16T09:14:00.176Z,99869.69
2022-11-16T09:14:46.654Z,99863.66
2022-11-16T09:15:33.381Z,99863.72
2022-11-16T09:16:21.251Z,99858.59
2022-11-16T09:17:07.695Z,99859.50
2022-11-16T09:17:55.416Z,99862.13
2022-11-16T09:18:45.695Z,99866.47
2022-11-16T09:19:32.463Z,99863.94
2022-11-16T09:20:19.001Z,99855.31
2022-11-16T09:21:05.574Z,99854.53
2022-11-16T09:21:52.313Z,99855.41
2022-11-16T09:22:38.942Z,99865.91
2022-11-16T09:23:26.039Z,99861.59
2022-11-16T09:24:12.972Z,99859.88
2022-11-16T09:24:59.599Z,99860.81
2022-11-16T09:25:48.366Z,99854.75
2022-11-16T09:26:34.954Z,99861.72
2022-11-16T09:27:21.384Z,99862.63
2022-11-16T09:28:08.596Z,99863.47
2022-11-16T09:29:00.630Z,99859.16
2022-11-16T09:29:47.064Z,99855.66
2022-11-16T09:30:33.503Z,99861.56
2022-11-16T09:31:23.308Z,99862.44
2022-11-16T09:32:10.316Z,99859.88
2022-11-16T09:32:58.966Z,99869.44
2022-11-16T09:33:47.641Z,99867.78
2022-11-16T09:34:35.282Z,99863.47
2022-11-16T09:35:21.752Z,99864.34
2022-11-16T09:36:09.394Z,99870.50
2022-11-16T09:36:55.880Z,99864.50
2022-11-16T09:37:42.273Z,99866.28
2022-11-16T09:38:40.515Z,99866.31
2022-11-16T09:39:35.921Z,99869.94
2022-11-16T09:40:34.307Z,99868.19
2022-11-16T09:41:39.043Z,99867.41
2022-11-16T09:43:00.977Z,99871.03
2022-11-16T09:43:56.612Z,99867.56
2022-11-16T09:45:12.649Z,99866.69
2022-11-16T09:46:33.999Z,99864.97
2022-11-16T09:47:25.082Z,99865.72
2022-11-16T09:48:16.921Z,99863.88
2022-11-16T09:49:17.684Z,99863.03
2022-11-16T09:50:08.294Z,99860.31
2022-11-16T09:51:07.381Z,99862.00
2022-11-16T09:52:19.194Z,99866.25
2022-11-16T09:53:26.862Z,99860.06
2022-11-16T09:54:20.502Z,99866.91
2022-11-16T09:55:33.481Z,99871.22
2022-11-16T09:56:23.408Z,99871.25
2022-11-16T09:57:26.859Z,99865.09
2022-11-16T09:58:27.532Z,99862.41
2022-11-16T09:59:36.923Z,99868.41
2022-11-16T10:00:23.928Z,99860.59
2022-11-16T10:01:33.197Z,99871.78
2022-11-16T10:02:32.623Z,99861.41
2022-11-16T10:03:19.184Z,99865.78
2022-11-16T10:04:17.461Z,99865.78
2022-11-16T10:05:38.356Z,99865.81
2022-11-16T10:06:55.223Z,99859.81
2022-11-16T10:07:43.553Z,99858.13
2022-11-16T10:08:49.304Z,99859.03
2022-11-16T10:09:36.310Z,99855.63
2022-11-16T10:10:39.776Z,99852.16
2022-11-16T10:11:45.483Z,99854.72